createdAt,value
2023-02-06T00:00:03.432Z,1016.31
2023-02-06T00:01:03.439Z,1016.25
2023-02-06T00:02:03.435Z,1016.21
2023-02-06T00:03:03.417Z,1016.32
2023-02-06T00:04:03.438Z,1016.32
2023-02-06T00:05:03.398Z,1016.27
2023-02-06T00:06:03.434Z,1016.27
2023-02-06T00:07:03.399Z,1016.26
2023-02-06T00:08:03.369Z,1016.24
2023-02-06T00:09:03.371Z,1016.25
2023-02-06T00:10:03.352Z,1016.27
2023-02-06T00:11:03.347Z,1016.21
2023-02-06T00:12:03.351Z,1016.31
2023-02-06T00:13:04.304Z,1016.28
2023-02-06T00:14:03.344Z,1016.32
2023-02-06T00:15:03.311Z,1016.22
2023-02-06T00:16:03.320Z,1016.22
2023-02-06T00:17:03.303Z,1016.27
2023-02-06T00:18:03.282Z,1016.22
2023-02-06T00:19:03.345Z,1016.22
2023-02-06T00:20:03.267Z,1016.19
2023-02-06T00:21:03.285Z,1016.18
2023-02-06T00:22:03.266Z,1016.23
2023-02-06T00:23:03.270Z,1016.28
2023-02-06T00:24:03.269Z,1016.26
2023-02-06T00:25:03.233Z,1016.29
2023-02-06T00:26:03.240Z,1016.21
2023-02-06T00:27:03.220Z,1016.27
2023-02-06T00:28:03.263Z,1016.25
2023-02-06T00:29:03.227Z,1016.18
2023-02-06T00:30:04.203Z,1016.19
2023-02-06T00:31:03.318Z,1016.20
2023-02-06T00:32:03.222Z,1016.22
2023-02-06T00:33:03.221Z,1016.28
2023-02-06T00:34:03.199Z,1016.28
2023-02-06T00:35:03.194Z,1016.26
2023-02-06T00:36:03.228Z,1016.29
2023-02-06T00:37:03.187Z,1016.26
2023-02-06T00:38:03.168Z,1016.30
2023-02-06T00:39:03.196Z,1016.29
2023-02-06T00:40:03.162Z,1016.26
2023-02-06T00:41:03.153Z,1016.28
2023-02-06T00:42:03.204Z,1016.35
2023-02-06T00:43:03.121Z,1016.31
2023-02-06T00:44:03.104Z,1016.30
2023-02-06T00:45:03.147Z,1016.33
2023-02-06T00:46:03.210Z,1016.29
2023-02-06T00:47:03.148Z,1016.28
2023-02-06T00:48:03.107Z,1016.28
2023-02-06T00:49:03.096Z,1016.25
2023-02-06T00:50:03.100Z,1016.26
2023-02-06T00:51:03.078Z,1016.25
2023-02-06T00:52:03.121Z,1016.23
2023-02-06T00:53:03.079Z,1016.21
2023-02-06T00:54:03.058Z,1016.24
2023-02-06T00:55:03.082Z,1016.26
2023-02-06T00:56:03.056Z,1016.20
2023-02-06T00:57:03.075Z,1016.22
2023-02-06T00:58:03.027Z,1016.27
2023-02-06T00:59:03.040Z,1016.24
2023-02-06T01:00:03.087Z,1016.32
2023-02-06T01:01:03.006Z,1016.30
2023-02-06T01:02:03.055Z,1016.32
2023-02-06T01:03:03.033Z,1016.34
2023-02-06T01:04:08.223Z,1016.28
2023-02-06T01:05:03.994Z,1016.32
2023-02-06T01:06:02.978Z,1016.34
2023-02-06T01:07:02.995Z,1016.30
2023-02-06T01:08:04.542Z,1016.29
2023-02-06T01:09:03.981Z,1016.36
2023-02-06T01:10:02.997Z,1016.38
2023-02-06T01:11:02.948Z,1016.40
2023-02-06T01:12:02.952Z,1016.41
2023-02-06T01:13:02.962Z,1016.48
2023-02-06T01:14:02.929Z,1016.43
2023-02-06T01:15:02.922Z,1016.42
2023-02-06T01:16:02.992Z,1016.47
2023-02-06T01:17:02.906Z,1016.43
2023-02-06T01:18:02.935Z,1016.41
2023-02-06T01:19:02.907Z,1016.46
2023-02-06T01:20:02.914Z,1016.46
2023-02-06T01:21:02.905Z,1016.42
2023-02-06T01:22:02.891Z,1016.38
2023-02-06T01:23:02.870Z,1016.33
2023-02-06T01:24:02.899Z,1016.34
2023-02-06T01:25:02.856Z,1016.41
2023-02-06T01:26:02.864Z,1016.40
2023-02-06T01:27:02.844Z,1016.34
2023-02-06T01:28:02.852Z,1016.40
2023-02-06T01:29:02.833Z,1016.34
2023-02-06T01:30:02.862Z,1016.40
2023-02-06T01:31:02.996Z,1016.34
2023-02-06T01:32:02.816Z,1016.33
2023-02-06T01:33:02.849Z,1016.32
2023-02-06T01:34:02.834Z,1016.36
2023-02-06T01:35:02.822Z,1016.40
2023-02-06T01:36:02.828Z,1016.33
2023-02-06T01:37:02.782Z,1016.37
2023-02-06T01:38:02.783Z,1016.39
2023-02-06T01:39:02.791Z,1016.38
2023-02-06T01:40:02.751Z,1016.37
2023-02-06T01:41:02.801Z,1016.36
2023-02-06T01:42:02.788Z,1016.37
2023-02-06T01:43:02.754Z,1016.41
2023-02-06T01:44:02.739Z,1016.38
2023-02-06T01:45:02.749Z,1016.35
2023-02-06T01:46:02.717Z,1016.44
2023-02-06T01:47:02.776Z,1016.43
2023-02-06T01:48:02.729Z,1016.42
2023-02-06T01:49:02.693Z,1016.45
2023-02-06T01:50:02.813Z,1016.38
2023-02-06T01:51:02.702Z,1016.44
2023-02-06T01:52:02.748Z,1016.43
2023-02-06T01:53:02.737Z,1016.37
2023-02-06T01:54:02.675Z,1016.45
2023-02-06T01:55:02.700Z,1016.34
2023-02-06T01:56:02.696Z,1016.35
2023-02-06T01:57:02.687Z,1016.31
2023-02-06T01:58:02.692Z,1016.34
2023-02-06T01:59:02.670Z,1016.31
2023-02-06T02:00:02.653Z,1016.30
2023-02-06T02:01:02.691Z,1016.30
2023-02-06T02:02:02.668Z,1016.31
2023-02-06T02:03:02.636Z,1016.26
2023-02-06T02:04:02.678Z,1016.28
2023-02-06T02:05:02.615Z,1016.30
2023-02-06T02:06:02.598Z,1016.25
2023-02-06T02:07:02.615Z,1016.27
2023-02-06T02:08:02.621Z,1016.25
2023-02-06T02:09:03.637Z,1016.23
2023-02-06T02:10:02.592Z,1016.26
2023-02-06T02:11:02.578Z,1016.18
2023-02-06T02:12:02.573Z,1016.15
2023-02-06T02:13:02.589Z,1016.24
2023-02-06T02:14:02.591Z,1016.19
2023-02-06T02:15:02.601Z,1016.24
2023-02-06T02:16:02.552Z,1016.21
2023-02-06T02:17:02.532Z,1016.21
2023-02-06T02:18:02.545Z,1016.24
2023-02-06T02:19:02.536Z,1016.26
2023-02-06T02:20:02.508Z,1016.23
2023-02-06T02:21:02.508Z,1016.22
2023-02-06T02:22:02.516Z,1016.18
2023-02-06T02:23:02.490Z,1016.20
2023-02-06T02:24:02.486Z,1016.19
2023-02-06T02:25:02.498Z,1016.19
2023-02-06T02:26:02.467Z,1016.22
2023-02-06T02:27:02.495Z,1016.22
2023-02-06T02:28:02.491Z,1016.19
2023-02-06T02:29:02.497Z,1016.26
2023-02-06T02:30:02.471Z,1016.21
2023-02-06T02:31:02.487Z,1016.22
2023-02-06T02:32:02.459Z,1016.21
2023-02-06T02:33:02.431Z,1016.23
2023-02-06T02:34:02.467Z,1016.18
2023-02-06T02:35:02.480Z,1016.25
2023-02-06T02:36:02.434Z,1016.19
2023-02-06T02:37:02.408Z,1016.21
2023-02-06T02:38:02.415Z,1016.23
2023-02-06T02:39:02.409Z,1016.25
2023-02-06T02:40:02.395Z,1016.28
2023-02-06T02:41:02.426Z,1016.28
2023-02-06T02:42:02.406Z,1016.26
2023-02-06T02:43:02.369Z,1016.26
2023-02-06T02:44:02.360Z,1016.23
2023-02-06T02:45:02.392Z,1016.23
2023-02-06T02:46:02.377Z,1016.26
2023-02-06T02:47:02.368Z,1016.25
2023-02-06T02:48:02.387Z,1016.19
2023-02-06T02:49:02.336Z,1016.23
2023-02-06T02:50:02.328Z,1016.17
2023-02-06T02:51:02.322Z,1016.20
2023-02-06T02:52:02.367Z,1016.04
2023-02-06T02:53:02.429Z,1016.09
2023-02-06T02:54:02.337Z,1016.09
2023-02-06T02:55:02.304Z,1015.96
2023-02-06T02:56:02.301Z,1015.97
2023-02-06T02:57:02.313Z,1015.93
2023-02-06T02:58:02.290Z,1015.84
2023-02-06T02:59:02.298Z,1015.92
2023-02-06T03:00:02.248Z,1015.85
2023-02-06T03:01:02.286Z,1015.92
2023-02-06T03:02:03.292Z,1015.96
2023-02-06T03:03:02.292Z,1015.93
2023-02-06T03:04:02.256Z,1015.90
2023-02-06T03:05:02.258Z,1015.90
2023-02-06T03:06:03.264Z,1015.93
2023-02-06T03:07:03.225Z,1015.93
2023-02-06T03:08:02.254Z,1015.91
2023-02-06T03:09:02.184Z,1015.91
2023-02-06T03:10:02.198Z,1015.93
2023-02-06T03:11:02.221Z,1015.92
2023-02-06T03:12:02.182Z,1015.88
2023-02-06T03:13:02.224Z,1015.90
2023-02-06T03:14:02.207Z,1015.89
2023-02-06T03:15:02.166Z,1015.88
2023-02-06T03:16:02.164Z,1015.84
2023-02-06T03:17:02.137Z,1015.90
2023-02-06T03:18:02.150Z,1015.91
2023-02-06T03:19:03.132Z,1015.97
2023-02-06T03:20:02.147Z,1015.93
2023-02-06T03:21:02.114Z,1015.91
2023-02-06T03:22:02.119Z,1015.86
2023-02-06T03:23:02.111Z,1015.89
2023-02-06T03:24:02.107Z,1015.92
2023-02-06T03:25:02.149Z,1015.92
2023-02-06T03:26:02.097Z,1015.91
2023-02-06T03:27:02.067Z,1015.92
2023-02-06T03:28:02.108Z,1015.94
2023-02-06T03:29:02.072Z,1015.92
2023-02-06T03:30:02.119Z,1015.91
2023-02-06T03:31:02.039Z,1015.93
2023-02-06T03:32:02.063Z,1015.94
2023-02-06T03:33:02.061Z,1015.90
2023-02-06T03:34:02.046Z,1015.93
2023-02-06T03:35:02.049Z,1015.89
2023-02-06T03:36:02.006Z,1015.94
2023-02-06T03:37:02.014Z,1015.94
2023-02-06T03:38:01.991Z,1015.97
2023-02-06T03:39:02.004Z,1015.95
2023-02-06T03:40:01.999Z,1016.03
2023-02-06T03:41:02.006Z,1016.00
2023-02-06T03:42:01.998Z,1016.06
2023-02-06T03:43:01.985Z,1016.09
2023-02-06T03:44:01.994Z,1016.07
2023-02-06T03:45:01.978Z,1016.04
2023-02-06T03:46:02.034Z,1016.03
2023-02-06T03:47:01.969Z,1015.98
2023-02-06T03:48:01.944Z,1015.99
2023-02-06T03:49:01.925Z,1016.00
2023-02-06T03:50:01.960Z,1016.02
2023-02-06T03:51:01.956Z,1016.04
2023-02-06T03:52:01.906Z,1016.06
2023-02-06T03:53:01.909Z,1016.06
2023-02-06T03:54:01.922Z,1016.04
2023-02-06T03:55:01.907Z,1016.09
2023-02-06T03:56:01.902Z,1016.07
2023-02-06T03:57:01.899Z,1016.07
2023-02-06T03:58:01.889Z,1016.06
2023-02-06T03:59:01.895Z,1016.12
2023-02-06T04:00:01.907Z,1016.15
2023-02-06T04:01:01.935Z,1016.16
2023-02-06T04:02:01.944Z,1016.11
2023-02-06T04:03:01.912Z,1016.15
2023-02-06T04:04:01.834Z,1016.15
2023-02-06T04:05:01.852Z,1016.13
2023-02-06T04:06:01.833Z,1016.13
2023-02-06T04:07:01.829Z,1016.13
2023-02-06T04:08:01.837Z,1016.21
2023-02-06T04:09:01.818Z,1016.20
2023-02-06T04:10:01.860Z,1016.24
2023-02-06T04:11:01.807Z,1016.19
2023-02-06T04:12:01.795Z,1016.22
2023-02-06T04:13:01.831Z,1016.31
2023-02-06T04:14:01.781Z,1016.31
2023-02-06T04:15:01.859Z,1016.37
2023-02-06T04:16:01.787Z,1016.40
2023-02-06T04:17:01.810Z,1016.42
2023-02-06T04:18:02.054Z,1016.43
2023-02-06T04:19:02.771Z,1016.42
2023-02-06T04:20:01.765Z,1016.38
2023-02-06T04:21:01.783Z,1016.39
2023-02-06T04:22:01.745Z,1016.39
2023-02-06T04:23:01.717Z,1016.40
2023-02-06T04:24:01.722Z,1016.39
2023-02-06T04:25:01.751Z,1016.42
2023-02-06T04:26:01.771Z,1016.42
2023-02-06T04:27:01.701Z,1016.42
2023-02-06T04:28:01.721Z,1016.39
2023-02-06T04:29:01.696Z,1016.49
2023-02-06T04:30:01.763Z,1016.44
2023-02-06T04:31:01.741Z,1016.40
2023-02-06T04:32:01.661Z,1016.42
2023-02-06T04:33:01.696Z,1016.39
2023-02-06T04:34:01.644Z,1016.38
2023-02-06T04:35:02.677Z,1016.32
2023-02-06T04:36:01.703Z,1016.32
2023-02-06T04:37:01.640Z,1016.27
2023-02-06T04:38:01.642Z,1016.29
2023-02-06T04:39:01.622Z,1016.21
2023-02-06T04:40:01.635Z,1016.19
2023-02-06T04:41:01.631Z,1016.21
2023-02-06T04:42:01.619Z,1016.18
2023-02-06T04:43:01.612Z,1016.18
2023-02-06T04:44:01.591Z,1016.20
2023-02-06T04:45:01.592Z,1016.19
2023-02-06T04:46:01.662Z,1016.21
2023-02-06T04:47:01.637Z,1016.27
2023-02-06T04:48:01.574Z,1016.22
2023-02-06T04:49:01.555Z,1016.26
2023-02-06T04:50:01.575Z,1016.25
2023-02-06T04:51:01.589Z,1016.33
2023-02-06T04:52:01.579Z,1016.30
2023-02-06T04:53:01.663Z,1016.28
2023-02-06T04:54:01.563Z,1016.32
2023-02-06T04:55:01.564Z,1016.34
2023-02-06T04:56:01.505Z,1016.36
2023-02-06T04:57:01.554Z,1016.28
2023-02-06T04:58:01.551Z,1016.29
2023-02-06T04:59:01.508Z,1016.33
2023-02-06T05:00:01.496Z,1016.34
2023-02-06T05:01:01.483Z,1016.31
2023-02-06T05:02:01.483Z,1016.29
2023-02-06T05:03:01.474Z,1016.26
2023-02-06T05:04:01.481Z,1016.25
2023-02-06T05:05:01.569Z,1016.23
2023-02-06T05:06:01.440Z,1016.23
2023-02-06T05:07:01.432Z,1016.26
2023-02-06T05:08:01.462Z,1016.25
2023-02-06T05:09:01.443Z,1016.26
2023-02-06T05:10:01.421Z,1016.28
2023-02-06T05:11:01.392Z,1016.25
2023-02-06T05:12:01.415Z,1016.35
2023-02-06T05:13:01.389Z,1016.31
2023-02-06T05:14:01.403Z,1016.32
2023-02-06T05:15:02.444Z,1016.25
2023-02-06T05:16:01.424Z,1016.27
2023-02-06T05:17:01.436Z,1016.27
2023-02-06T05:18:01.366Z,1016.30
2023-02-06T05:19:01.390Z,1016.31
2023-02-06T05:20:01.382Z,1016.30
2023-02-06T05:21:01.362Z,1016.31
2023-02-06T05:22:01.368Z,1016.25
2023-02-06T05:23:01.330Z,1016.29
2023-02-06T05:24:01.378Z,1016.27
2023-02-06T05:25:01.318Z,1016.29
2023-02-06T05:26:01.335Z,1016.24
2023-02-06T05:27:01.302Z,1016.26
2023-02-06T05:28:01.359Z,1016.25
2023-02-06T05:29:01.291Z,1016.26
2023-02-06T05:30:01.317Z,1016.26
2023-02-06T05:31:01.360Z,1016.25
2023-02-06T05:32:01.333Z,1016.25
2023-02-06T05:33:01.260Z,1016.20
2023-02-06T05:34:01.254Z,1016.21
2023-02-06T05:35:01.307Z,1016.19
2023-02-06T05:36:01.246Z,1016.24
2023-02-06T05:37:01.289Z,1016.22
2023-02-06T05:38:01.223Z,1016.24
2023-02-06T05:39:01.233Z,1016.24
2023-02-06T05:40:01.231Z,1016.24
2023-02-06T05:41:01.285Z,1016.21
2023-02-06T05:42:01.236Z,1016.20
2023-02-06T05:43:01.235Z,1016.28
2023-02-06T05:44:01.273Z,1016.33
2023-02-06T05:45:01.284Z,1016.31
2023-02-06T05:46:01.329Z,1016.34
2023-02-06T05:47:01.224Z,1016.38
2023-02-06T05:48:01.226Z,1016.33
2023-02-06T05:49:01.171Z,1016.40
2023-02-06T05:50:01.167Z,1016.40
2023-02-06T05:51:01.154Z,1016.30
2023-02-06T05:52:01.283Z,1016.34
2023-02-06T05:53:01.142Z,1016.33
2023-02-06T05:54:01.133Z,1016.24
2023-02-06T05:55:01.119Z,1016.33
2023-02-06T05:56:01.124Z,1016.37
2023-02-06T05:57:01.153Z,1016.42
2023-02-06T05:58:01.103Z,1016.36
2023-02-06T05:59:01.132Z,1016.36
2023-02-06T06:00:01.099Z,1016.33
2023-02-06T06:01:01.109Z,1016.39
2023-02-06T06:02:01.086Z,1016.36
2023-02-06T06:03:01.099Z,1016.39
2023-02-06T06:04:01.102Z,1016.37
2023-02-06T06:05:01.098Z,1016.34
2023-02-06T06:06:01.036Z,1016.32
2023-02-06T06:07:01.040Z,1016.37
2023-02-06T06:08:01.064Z,1016.43
2023-02-06T06:09:01.153Z,1016.41
2023-02-06T06:10:01.027Z,1016.43
2023-02-06T06:11:02.096Z,1016.45
2023-02-06T06:12:02.029Z,1016.40
2023-02-06T06:13:01.023Z,1016.41
2023-02-06T06:14:01.021Z,1016.47
2023-02-06T06:15:01.018Z,1016.54
2023-02-06T06:16:01.029Z,1016.55
2023-02-06T06:17:01.053Z,1016.59
2023-02-06T06:18:01.000Z,1016.54
2023-02-06T06:19:00.997Z,1016.55
2023-02-06T06:20:00.962Z,1016.51
2023-02-06T06:21:00.955Z,1016.47
2023-02-06T06:22:00.965Z,1016.51
2023-02-06T06:23:01.045Z,1016.50
2023-02-06T06:24:00.976Z,1016.53
2023-02-06T06:25:00.993Z,1016.56
2023-02-06T06:26:00.903Z,1016.54
2023-02-06T06:27:00.946Z,1016.52
2023-02-06T06:28:00.991Z,1016.57
2023-02-06T06:29:00.934Z,1016.57
2023-02-06T06:30:00.928Z,1016.57
2023-02-06T06:31:00.939Z,1016.55
2023-02-06T06:32:00.901Z,1016.63
2023-02-06T06:33:01.882Z,1016.56
2023-02-06T06:34:00.876Z,1016.54
2023-02-06T06:35:00.877Z,1016.68
2023-02-06T06:36:00.899Z,1016.63
2023-02-06T06:37:00.845Z,1016.66
2023-02-06T06:38:00.842Z,1016.68
2023-02-06T06:39:00.929Z,1016.72
2023-02-06T06:40:00.817Z,1016.71
2023-02-06T06:41:00.874Z,1016.72
2023-02-06T06:42:00.883Z,1016.79
2023-02-06T06:43:00.845Z,1016.75
2023-02-06T06:44:00.907Z,1016.75
2023-02-06T06:45:00.802Z,1016.74
2023-02-06T06:46:00.873Z,1016.72
2023-02-06T06:47:00.957Z,1016.76
2023-02-06T06:48:00.783Z,1016.79
2023-02-06T06:49:00.800Z,1016.77
2023-02-06T06:50:00.792Z,1016.72
2023-02-06T06:51:00.774Z,1016.74
2023-02-06T06:52:00.742Z,1016.69
2023-02-06T06:53:01.769Z,1016.69
2023-02-06T06:54:00.736Z,1016.68
2023-02-06T06:55:00.764Z,1016.70
2023-02-06T06:56:00.748Z,1016.64
2023-02-06T06:57:00.709Z,1016.71
2023-02-06T06:58:00.729Z,1016.66
2023-02-06T06:59:00.695Z,1016.61
2023-02-06T07:00:00.693Z,1016.69
2023-02-06T07:01:00.754Z,1016.69
2023-02-06T07:02:01.697Z,1016.65
2023-02-06T07:03:00.746Z,1016.68
2023-02-06T07:04:00.716Z,1016.64
2023-02-06T07:05:00.754Z,1016.66
2023-02-06T07:06:00.652Z,1016.63
2023-02-06T07:07:00.741Z,1016.63
2023-02-06T07:08:00.648Z,1016.65
2023-02-06T07:09:00.669Z,1016.71
2023-02-06T07:10:00.616Z,1016.72
2023-02-06T07:11:00.605Z,1016.76
2023-02-06T07:12:00.602Z,1016.74
2023-02-06T07:13:00.627Z,1016.76
2023-02-06T07:14:00.650Z,1016.71
2023-02-06T07:15:00.614Z,1016.71
2023-02-06T07:16:00.582Z,1016.64
2023-02-06T07:17:01.609Z,1016.70
2023-02-06T07:18:00.588Z,1016.73
2023-02-06T07:19:00.596Z,1016.76
2023-02-06T07:20:00.603Z,1016.73
2023-02-06T07:21:00.561Z,1016.74
2023-02-06T07:22:00.570Z,1016.77
2023-02-06T07:23:00.575Z,1016.82
2023-02-06T07:24:00.540Z,1016.79
2023-02-06T07:25:00.572Z,1016.84
2023-02-06T07:26:00.538Z,1016.90
2023-02-06T07:27:00.540Z,1016.83
2023-02-06T07:28:00.565Z,1016.77
2023-02-06T07:29:00.511Z,1016.77
2023-02-06T07:30:00.521Z,1016.78
2023-02-06T07:31:00.565Z,1016.80
2023-02-06T07:32:00.575Z,1016.76
2023-02-06T07:33:00.525Z,1016.79
2023-02-06T07:34:00.482Z,1016.73
2023-02-06T07:35:00.548Z,1016.78
2023-02-06T07:36:03.304Z,1016.71
2023-02-06T07:37:00.442Z,1016.74
2023-02-06T07:38:00.439Z,1016.71
2023-02-06T07:39:00.454Z,1016.71
2023-02-06T07:40:00.479Z,1016.73
2023-02-06T07:41:00.513Z,1016.66
2023-02-06T07:42:00.410Z,1016.69
2023-02-06T07:43:00.423Z,1016.67
2023-02-06T07:44:00.427Z,1016.66
2023-02-06T07:45:00.433Z,1016.62
2023-02-06T07:46:00.443Z,1016.64
2023-02-06T07:47:00.382Z,1016.68
2023-02-06T07:48:00.389Z,1016.70
2023-02-06T07:49:00.366Z,1016.60
2023-02-06T07:50:00.352Z,1016.63
2023-02-06T07:51:00.369Z,1016.64
2023-02-06T07:52:00.446Z,1016.64
2023-02-06T07:53:00.343Z,1016.58
2023-02-06T07:54:00.332Z,1016.56
2023-02-06T07:55:00.345Z,1016.59
2023-02-06T07:56:00.331Z,1016.59
2023-02-06T07:57:00.356Z,1016.59
2023-02-06T07:58:00.310Z,1016.52
2023-02-06T07:59:00.349Z,1016.54
2023-02-06T08:00:00.340Z,1016.53
2023-02-06T08:01:00.304Z,1016.53
2023-02-06T08:02:00.296Z,1016.55
2023-02-06T08:03:00.288Z,1016.53
2023-02-06T08:04:00.273Z,1016.47
2023-02-06T08:05:00.292Z,1016.56
2023-02-06T08:06:00.274Z,1016.55
2023-02-06T08:07:00.284Z,1016.58
2023-02-06T08:08:00.241Z,1016.54
2023-02-06T08:09:00.268Z,1016.53
2023-02-06T08:10:00.284Z,1016.51
2023-02-06T08:11:00.229Z,1016.55
2023-02-06T08:12:00.276Z,1016.57
2023-02-06T08:13:00.203Z,1016.59
2023-02-06T08:14:00.224Z,1016.66
2023-02-06T08:15:00.257Z,1016.59
2023-02-06T08:16:00.243Z,1016.58
2023-02-06T08:17:00.185Z,1016.66
2023-02-06T08:18:00.180Z,1016.68
2023-02-06T08:19:00.190Z,1016.64
2023-02-06T08:20:00.166Z,1016.68
2023-02-06T08:21:00.163Z,1016.59
2023-02-06T08:22:00.163Z,1016.54
2023-02-06T08:23:00.142Z,1016.51
2023-02-06T08:24:00.171Z,1016.51
2023-02-06T08:25:00.150Z,1016.50
2023-02-06T08:26:00.145Z,1016.56
2023-02-06T08:27:00.121Z,1016.61
2023-02-06T08:28:00.203Z,1016.62
2023-02-06T08:29:00.198Z,1016.61
2023-02-06T08:30:00.129Z,1016.66
2023-02-06T08:31:00.497Z,1016.63
2023-02-06T08:32:00.168Z,1016.59
2023-02-06T08:33:00.126Z,1016.63
2023-02-06T08:34:00.160Z,1016.59
2023-02-06T08:35:00.220Z,1016.58
2023-02-06T08:36:00.161Z,1016.54
2023-02-06T08:37:00.141Z,1016.53
2023-02-06T08:38:00.137Z,1016.48
2023-02-06T08:39:00.109Z,1016.55
2023-02-06T08:40:00.174Z,1016.55
2023-02-06T08:41:00.133Z,1016.63
2023-02-06T08:42:00.143Z,1016.60
2023-02-06T08:43:00.126Z,1016.58
2023-02-06T08:44:00.083Z,1016.55
2023-02-06T08:45:00.082Z,1016.59
2023-02-06T08:46:00.115Z,1016.63
2023-02-06T08:47:09.715Z,1016.63
2023-02-06T08:48:02.140Z,1016.55
2023-02-06T08:49:00.099Z,1016.64
2023-02-06T08:50:02.916Z,1016.62
2023-02-06T08:51:00.033Z,1016.63
2023-02-06T08:51:59.968Z,1016.61
2023-02-06T08:52:59.961Z,1016.62
2023-02-06T08:53:59.958Z,1016.65
2023-02-06T08:54:59.985Z,1016.66
2023-02-06T08:55:59.929Z,1016.64
2023-02-06T08:57:00.023Z,1016.65
2023-02-06T08:57:59.944Z,1016.68
2023-02-06T08:58:59.940Z,1016.67
2023-02-06T08:59:59.995Z,1016.67
2023-02-06T09:00:59.912Z,1016.64
2023-02-06T09:01:59.943Z,1016.69
2023-02-06T09:02:59.910Z,1016.65
2023-02-06T09:03:59.891Z,1016.68
2023-02-06T09:04:59.887Z,1016.62
2023-02-06T09:06:05.571Z,1016.62
2023-02-06T09:07:01.845Z,1016.63
2023-02-06T09:07:59.911Z,1016.59
2023-02-06T09:08:59.846Z,1016.56
2023-02-06T09:09:59.849Z,1016.60
2023-02-06T09:10:59.903Z,1016.56
2023-02-06T09:11:59.933Z,1016.50
2023-02-06T09:12:59.833Z,1016.55
2023-02-06T09:13:59.971Z,1016.53
2023-02-06T09:14:59.816Z,1016.48
2023-02-06T09:15:59.948Z,1016.55
2023-02-06T09:16:59.812Z,1016.50
2023-02-06T09:17:59.790Z,1016.49
2023-02-06T09:18:59.788Z,1016.47
2023-02-06T09:19:59.785Z,1016.45
2023-02-06T09:20:59.804Z,1016.46
2023-02-06T09:21:59.789Z,1016.46
2023-02-06T09:22:59.770Z,1016.48
2023-02-06T09:23:59.767Z,1016.41
2023-02-06T09:24:59.757Z,1016.49
2023-02-06T09:25:59.734Z,1016.45
2023-02-06T09:27:01.015Z,1016.42
2023-02-06T09:28:00.817Z,1016.51
2023-02-06T09:28:59.731Z,1016.45
2023-02-06T09:29:59.733Z,1016.46
2023-02-06T09:30:59.810Z,1016.48
2023-02-06T09:31:59.719Z,1016.52
2023-02-06T09:32:59.693Z,1016.48
2023-02-06T09:33:59.747Z,1016.41
2023-02-06T09:34:59.689Z,1016.39
2023-02-06T09:35:59.675Z,1016.36
2023-02-06T09:37:00.672Z,1016.35
2023-02-06T09:37:59.674Z,1016.35
2023-02-06T09:38:59.679Z,1016.26
2023-02-06T09:39:59.704Z,1016.19
2023-02-06T09:40:59.638Z,1016.23
2023-02-06T09:41:59.663Z,1016.25
2023-02-06T09:42:59.672Z,1016.28
2023-02-06T09:43:59.687Z,1016.34
2023-02-06T09:44:59.596Z,1016.40
2023-02-06T09:45:59.619Z,1016.38
2023-02-06T09:46:59.597Z,1016.38
2023-02-06T09:47:59.651Z,1016.27
2023-02-06T09:48:59.580Z,1016.24
2023-02-06T09:49:59.578Z,1016.22
2023-02-06T09:50:59.595Z,1016.24
2023-02-06T09:51:59.578Z,1016.30
2023-02-06T09:52:59.603Z,1016.28
2023-02-06T09:53:59.600Z,1016.18
2023-02-06T09:54:59.573Z,1016.19
2023-02-06T09:55:59.535Z,1016.17
2023-02-06T09:56:59.543Z,1016.19
2023-02-06T09:57:59.558Z,1016.18
2023-02-06T09:58:59.537Z,1016.09
2023-02-06T09:59:59.513Z,1016.11
2023-02-06T10:00:59.567Z,1016.16
2023-02-06T10:01:59.544Z,1016.14
2023-02-06T10:02:59.531Z,1016.10
2023-02-06T10:03:59.505Z,1016.14
2023-02-06T10:04:59.540Z,1016.16
2023-02-06T10:05:59.608Z,1016.15
2023-02-06T10:06:59.479Z,1016.10
2023-02-06T10:07:59.456Z,1016.09
2023-02-06T10:08:59.469Z,1016.04
2023-02-06T10:09:59.520Z,1016.01
2023-02-06T10:10:59.542Z,1016.05
2023-02-06T10:11:59.478Z,1016.07
2023-02-06T10:12:59.453Z,1016.07
2023-02-06T10:13:59.465Z,1016.12
2023-02-06T10:14:59.470Z,1015.99
2023-02-06T10:15:59.420Z,1015.98
2023-02-06T10:16:59.428Z,1015.95
2023-02-06T10:17:59.428Z,1015.86
2023-02-06T10:18:59.436Z,1015.89
2023-02-06T10:19:59.441Z,1015.90
2023-02-06T10:20:59.404Z,1015.85
2023-02-06T10:21:59.400Z,1015.87
2023-02-06T10:22:59.409Z,1015.90
2023-02-06T10:23:59.390Z,1015.94
2023-02-06T10:24:59.433Z,1015.92
2023-02-06T10:25:59.374Z,1015.95
2023-02-06T10:26:59.383Z,1015.95
2023-02-06T10:27:59.449Z,1015.94
2023-02-06T10:28:59.370Z,1015.88
2023-02-06T10:29:59.389Z,1015.88
2023-02-06T10:30:59.464Z,1015.89
2023-02-06T10:31:59.447Z,1015.85
2023-02-06T10:32:59.379Z,1015.88
2023-02-06T10:33:59.346Z,1015.90
2023-02-06T10:34:59.369Z,1015.87
2023-02-06T10:35:59.348Z,1015.81
2023-02-06T10:36:59.380Z,1015.83
2023-02-06T10:37:59.307Z,1015.86
2023-02-06T10:38:59.338Z,1015.82
2023-02-06T10:39:59.361Z,1015.76
2023-02-06T10:40:59.328Z,1015.63
2023-02-06T10:41:59.343Z,1015.68
2023-02-06T10:42:59.328Z,1015.68
2023-02-06T10:43:59.354Z,1015.71
2023-02-06T10:45:13.166Z,1015.53
2023-02-06T10:46:01.347Z,1015.53
2023-02-06T10:46:59.338Z,1015.49
2023-02-06T10:47:59.281Z,1015.48
2023-02-06T10:48:59.271Z,1015.53
2023-02-06T10:49:59.253Z,1015.46
2023-02-06T10:50:59.262Z,1015.51
2023-02-06T10:52:00.252Z,1015.53
2023-02-06T10:52:59.243Z,1015.46
2023-02-06T10:53:59.278Z,1015.47
2023-02-06T10:54:59.229Z,1015.43
2023-02-06T10:55:59.221Z,1015.41
2023-02-06T10:56:59.227Z,1015.43
2023-02-06T10:57:59.230Z,1015.39
2023-02-06T10:58:59.235Z,1015.37
2023-02-06T10:59:59.237Z,1015.33
2023-02-06T11:00:59.244Z,1015.41
2023-02-06T11:02:00.531Z,1015.40
2023-02-06T11:03:07.537Z,1015.37
2023-02-06T11:04:01.185Z,1015.36
2023-02-06T11:04:59.226Z,1015.34
2023-02-06T11:05:59.210Z,1015.25
2023-02-06T11:06:59.167Z,1015.26
2023-02-06T11:07:59.179Z,1015.22
2023-02-06T11:08:59.180Z,1015.25
2023-02-06T11:09:59.196Z,1015.28
2023-02-06T11:10:59.241Z,1015.26
2023-02-06T11:11:59.183Z,1015.19
2023-02-06T11:12:59.122Z,1015.17
2023-02-06T11:13:59.177Z,1015.24
2023-02-06T11:14:59.150Z,1015.31
2023-02-06T11:15:59.189Z,1015.23
2023-02-06T11:16:59.122Z,1015.21
2023-02-06T11:17:59.112Z,1015.24
2023-02-06T11:18:59.102Z,1015.29
2023-02-06T11:19:59.113Z,1015.17
2023-02-06T11:20:59.176Z,1015.23
2023-02-06T11:21:59.133Z,1015.23
2023-02-06T11:22:59.096Z,1015.12
2023-02-06T11:23:59.117Z,1015.16
2023-02-06T11:24:59.124Z,1015.14
2023-02-06T11:25:59.129Z,1015.16
2023-02-06T11:26:59.118Z,1015.17
2023-02-06T11:27:59.100Z,1015.12
2023-02-06T11:28:59.058Z,1015.12
2023-02-06T11:29:59.060Z,1015.07
2023-02-06T11:30:59.098Z,1015.07
2023-02-06T11:31:59.093Z,1015.00
2023-02-06T11:33:04.570Z,1014.99
2023-02-06T11:34:01.051Z,1014.97
2023-02-06T11:34:59.032Z,1015.03
2023-02-06T11:35:59.075Z,1015.01
2023-02-06T11:36:59.050Z,1015.01
2023-02-06T11:37:59.039Z,1015.05
2023-02-06T11:38:59.038Z,1015.07
2023-02-06T11:39:59.020Z,1015.08
2023-02-06T11:40:59.017Z,1015.11
2023-02-06T11:41:59.023Z,1015.03
2023-02-06T11:42:59.021Z,1015.11
2023-02-06T11:43:59.035Z,1015.03
2023-02-06T11:44:58.983Z,1015.12
2023-02-06T11:45:59.101Z,1015.03
2023-02-06T11:46:58.993Z,1015.01
2023-02-06T11:47:58.975Z,1015.07
2023-02-06T11:48:59.013Z,1015.05
2023-02-06T11:49:58.999Z,1015.01
2023-02-06T11:50:58.974Z,1015.03
2023-02-06T11:51:59.018Z,1015.04
2023-02-06T11:52:58.980Z,1015.00
2023-02-06T11:53:58.935Z,1015.04
2023-02-06T11:54:58.950Z,1014.89
2023-02-06T11:55:58.939Z,1014.96
2023-02-06T11:56:58.963Z,1014.93
2023-02-06T11:57:58.937Z,1014.95
2023-02-06T11:58:58.947Z,1014.85
2023-02-06T11:59:58.915Z,1014.90
2023-02-06T12:00:58.941Z,1014.86
2023-02-06T12:01:58.965Z,1014.81
2023-02-06T12:02:58.906Z,1014.80
2023-02-06T12:03:58.881Z,1014.76
2023-02-06T12:04:58.946Z,1014.76